sensor_id;sensor_type;location;lat;lon;timestamp;pressure;altitude;pressure_sealevel;temperature;humidity
45071;BME280;30836;48.906;9.140;2023-04-23T00:00:40;979.59;;;22.20;38.76
45071;BME280;30836;48.906;9.140;2023-04-23T00:01:41;979.57;;;22.20;38.68
45071;BME280;30836;48.906;9.140;2023-04-23T00:02:43;979.57;;;22.20;38.78
45071;BME280;30836;48.906;9.140;2023-04-23T00:03:44;979.57;;;22.19;38.78
45071;BME280;30836;48.906;9.140;2023-04-23T00:04:49;979.59;;;22.21;38.67
45071;BME280;30836;48.906;9.140;2023-04-23T00:05:51;979.59;;;22.27;38.50
45071;BME280;30836;48.906;9.140;2023-04-23T00:06:51;979.59;;;22.35;38.30
45071;BME280;30836;48.906;9.140;2023-04-23T00:07:52;979.61;;;22.40;38.18
45071;BME280;30836;48.906;9.140;2023-04-23T00:08:53;979.59;;;22.42;38.25
45071;BME280;30836;48.906;9.140;2023-04-23T00:09:54;979.61;;;22.46;38.11
45071;BME280;30836;48.906;9.140;2023-04-23T00:10:56;979.65;;;22.50;38.05
45071;BME280;30836;48.906;9.140;2023-04-23T00:11:58;979.65;;;22.55;37.99
45071;BME280;30836;48.906;9.140;2023-04-23T00:12:59;979.69;;;22.55;38.06
45071;BME280;30836;48.906;9.140;2023-04-23T00:14:00;979.65;;;22.50;38.23
45071;BME280;30836;48.906;9.140;2023-04-23T00:15:01;979.65;;;22.48;38.17
45071;BME280;30836;48.906;9.140;2023-04-23T00:16:02;979.67;;;22.44;38.27
45071;BME280;30836;48.906;9.140;2023-04-23T00:17:03;979.67;;;22.40;38.30
45071;BME280;30836;48.906;9.140;2023-04-23T00:18:03;979.65;;;22.36;38.37
45071;BME280;30836;48.906;9.140;2023-04-23T00:19:04;979.65;;;22.35;38.23
45071;BME280;30836;48.906;9.140;2023-04-23T00:20:05;979.65;;;22.34;38.30
45071;BME280;30836;48.906;9.140;2023-04-23T00:21:06;979.65;;;22.29;38.45
45071;BME280;30836;48.906;9.140;2023-04-23T00:22:06;979.69;;;22.25;38.57
45071;BME280;30836;48.906;9.140;2023-04-23T00:23:07;979.67;;;22.20;38.63
45071;BME280;30836;48.906;9.140;2023-04-23T00:24:07;979.69;;;22.15;38.70
45071;BME280;30836;48.906;9.140;2023-04-23T00:25:08;979.69;;;22.07;38.85
45071;BME280;30836;48.906;9.140;2023-04-23T00:26:09;979.69;;;22.01;38.94
45071;BME280;30836;48.906;9.140;2023-04-23T00:27:09;979.69;;;22.01;38.76
45071;BME280;30836;48.906;9.140;2023-04-23T00:28:10;979.73;;;22.07;38.55
45071;BME280;30836;48.906;9.140;2023-04-23T00:29:10;979.69;;;22.05;38.95
45071;BME280;30836;48.906;9.140;2023-04-23T00:30:11;979.67;;;21.94;39.14
45071;BME280;30836;48.906;9.140;2023-04-23T00:31:11;979.71;;;21.86;39.24
45071;BME280;30836;48.906;9.140;2023-04-23T00:32:12;979.73;;;21.77;39.35
45071;BME280;30836;48.906;9.140;2023-04-23T00:33:12;979.71;;;21.71;39.49
45071;BME280;30836;48.906;9.140;2023-04-23T00:34:13;979.67;;;21.65;39.59
45071;BME280;30836;48.906;9.140;2023-04-23T00:35:14;979.67;;;21.54;39.94
45071;BME280;30836;48.906;9.140;2023-04-23T00:36:14;979.67;;;21.40;40.16
45071;BME280;30836;48.906;9.140;2023-04-23T00:37:14;979.67;;;21.26;40.33
45071;BME280;30836;48.906;9.140;2023-04-23T00:38:15;979.69;;;21.18;40.47
45071;BME280;30836;48.906;9.140;2023-04-23T00:39:15;979.71;;;21.13;40.66
45071;BME280;30836;48.906;9.140;2023-04-23T00:40:16;979.69;;;21.05;41.05
45071;BME280;30836;48.906;9.140;2023-04-23T00:41:16;979.75;;;20.97;41.08
45071;BME280;30836;48.906;9.140;2023-04-23T00:42:17;979.78;;;20.93;41.29
45071;BME280;30836;48.906;9.140;2023-04-23T00:43:18;979.78;;;20.86;41.56
45071;BME280;30836;48.906;9.140;2023-04-23T00:44:19;979.82;;;20.80;41.63
45071;BME280;30836;48.906;9.140;2023-04-23T00:45:19;979.86;;;20.78;41.77
45071;BME280;30836;48.906;9.140;2023-04-23T00:46:20;979.86;;;20.80;41.99
45071;BME280;30836;48.906;9.140;2023-04-23T00:47:21;979.92;;;20.84;42.00
45071;BME280;30836;48.906;9.140;2023-04-23T00:48:22;979.92;;;20.88;42.07
45071;BME280;30836;48.906;9.140;2023-04-23T00:49:23;979.92;;;20.88;42.27
45071;BME280;30836;48.906;9.140;2023-04-23T00:50:24;980.00;;;20.80;42.48
45071;BME280;30836;48.906;9.140;2023-04-23T00:51:25;980.02;;;20.72;42.80
45071;BME280;30836;48.906;9.140;2023-04-23T00:52:25;980.04;;;20.65;43.10
45071;BME280;30836;48.906;9.140;2023-04-23T00:53:26;980.08;;;20.57;43.59
45071;BME280;30836;48.906;9.140;2023-04-23T00:54:26;980.10;;;20.52;43.77
45071;BME280;30836;48.906;9.140;2023-04-23T00:55:27;980.08;;;20.47;44.23
45071;BME280;30836;48.906;9.140;2023-04-23T00:56:28;980.10;;;20.42;44.46
45071;BME280;30836;48.906;9.140;2023-04-23T00:57:28;980.10;;;20.42;44.27
45071;BME280;30836;48.906;9.140;2023-04-23T00:58:29;980.14;;;20.42;44.75
45071;BME280;30836;48.906;9.140;2023-04-23T00:59:30;980.14;;;20.37;45.17
45071;BME280;30836;48.906;9.140;2023-04-23T01:00:32;980.14;;;20.34;45.19
45071;BME280;30836;48.906;9.140;2023-04-23T01:01:37;980.14;;;20.35;45.19
45071;BME280;30836;48.906;9.140;2023-04-23T01:02:37;980.14;;;20.37;45.38
45071;BME280;30836;48.906;9.140;2023-04-23T01:03:38;980.14;;;20.39;45.28
45071;BME280;30836;48.906;9.140;2023-04-23T01:04:42;980.16;;;20.43;45.36
45071;BME280;30836;48.906;9.140;2023-04-23T01:05:44;980.18;;;20.49;44.95
45071;BME280;30836;48.906;9.140;2023-04-23T01:06:44;980.16;;;20.62;44.76
45071;BME280;30836;48.906;9.140;2023-04-23T01:07:46;980.22;;;20.70;44.77
45071;BME280;30836;48.906;9.140;2023-04-23T01:08:46;980.20;;;20.72;45.04
45071;BME280;30836;48.906;9.140;2023-04-23T01:09:48;980.18;;;20.70;44.98
45071;BME280;30836;48.906;9.140;2023-04-23T01:10:50;980.22;;;20.72;44.88
45071;BME280;30836;48.906;9.140;2023-04-23T01:11:52;980.24;;;20.75;44.92
45071;BME280;30836;48.906;9.140;2023-04-23T01:12:53;980.25;;;20.76;45.03
45071;BME280;30836;48.906;9.140;2023-04-23T01:13:54;980.24;;;20.71;45.26
45071;BME280;30836;48.906;9.140;2023-04-23T01:14:55;980.24;;;20.67;45.19
45071;BME280;30836;48.906;9.140;2023-04-23T01:15:55;980.24;;;20.68;45.19
45071;BME280;30836;48.906;9.140;2023-04-23T01:16:56;980.25;;;20.70;45.10
45071;BME280;30836;48.906;9.140;2023-04-23T01:17:57;980.25;;;20.71;45.36
45071;BME280;30836;48.906;9.140;2023-04-23T01:18:57;980.25;;;20.70;45.32
45071;BME280;30836;48.906;9.140;2023-04-23T01:19:58;980.25;;;20.70;45.30
45071;BME280;30836;48.906;9.140;2023-04-23T01:20:58;980.27;;;20.70;45.43
45071;BME280;30836;48.906;9.140;2023-04-23T01:21:59;980.27;;;20.70;45.48
45071;BME280;30836;48.906;9.140;2023-04-23T01:23:04;980.25;;;20.64;45.85
45071;BME280;30836;48.906;9.140;2023-04-23T01:24:06;980.24;;;20.56;45.79
45071;BME280;30836;48.906;9.140;2023-04-23T01:25:07;980.25;;;20.51;46.17
45071;BME280;30836;48.906;9.140;2023-04-23T01:26:08;980.20;;;20.44;46.27
45071;BME280;30836;48.906;9.140;2023-04-23T01:27:09;980.22;;;20.43;46.08
45071;BME280;30836;48.906;9.140;2023-04-23T01:28:10;980.22;;;20.47;45.95
45071;BME280;30836;48.906;9.140;2023-04-23T01:29:10;980.20;;;20.51;45.95
45071;BME280;30836;48.906;9.140;2023-04-23T01:30:12;980.20;;;20.51;46.17
45071;BME280;30836;48.906;9.140;2023-04-23T01:31:12;980.22;;;20.45;46.38
45071;BME280;30836;48.906;9.140;2023-04-23T01:32:13;980.22;;;20.40;46.43
45071;BME280;30836;48.906;9.140;2023-04-23T01:33:14;980.24;;;20.37;46.49
45071;BME280;30836;48.906;9.140;2023-04-23T01:34:15;980.25;;;20.37;46.36
45071;BME280;30836;48.906;9.140;2023-04-23T01:35:16;980.25;;;20.36;46.51
45071;BME280;30836;48.906;9.140;2023-04-23T01:36:17;980.22;;;20.34;46.49
45071;BME280;30836;48.906;9.140;2023-04-23T01:37:18;980.24;;;20.35;46.43
45071;BME280;30836;48.906;9.140;2023-04-23T01:38:19;980.25;;;20.40;46.22
45071;BME280;30836;48.906;9.140;2023-04-23T01:39:22;980.27;;;20.45;46.23
45071;BME280;30836;48.906;9.140;2023-04-23T01:40:23;980.27;;;20.47;46.19
45071;BME280;30836;48.906;9.140;2023-04-23T01:41:23;980.27;;;20.50;46.07
45071;BME280;30836;48.906;9.140;2023-04-23T01:42:24;980.29;;;20.52;46.10
45071;BME280;30836;48.906;9.140;2023-04-23T01:43:24;980.27;;;20.55;46.01
45071;BME280;30836;48.906;9.140;2023-04-23T01:44:25;980.29;;;20.57;46.03
45071;BME280;30836;48.906;9.140;2023-04-23T01:45:26;980.31;;;20.57;45.92
45071;BME280;30836;48.906;9.140;2023-04-23T01:46:27;980.27;;;20.56;46.04
45071;BME280;30836;48.906;9.140;2023-04-23T01:47:27;980.29;;;20.53;46.19
45071;BME280;30836;48.906;9.140;2023-04-23T01:48:28;980.31;;;20.51;46.16
45071;BME280;30836;48.906;9.140;2023-04-23T01:49:29;980.31;;;20.53;45.97
45071;BME280;30836;48.906;9.140;2023-04-23T01:50:30;980.29;;;20.57;45.95
45071;BME280;30836;48.906;9.140;2023-04-23T01:51:30;980.29;;;20.58;46.04
45071;BME280;30836;48.906;9.140;2023-04-23T01:52:31;980.31;;;20.59;45.88
45071;BME280;30836;48.906;9.140;2023-04-23T01:53:31;980.31;;;20.62;45.83
45071;BME280;30836;48.906;9.140;2023-04-23T01:54:31;980.33;;;20.66;45.61
45071;BME280;30836;48.906;9.140;2023-04-23T01:55:33;980.31;;;20.69;45.55
45071;BME280;30836;48.906;9.140;2023-04-23T01:56:36;980.33;;;20.74;45.43
45071;BME280;30836;48.906;9.140;2023-04-23T01:57:37;980.35;;;20.83;45.21
45071;BME280;30836;48.906;9.140;2023-04-23T01:58:37;980.37;;;20.88;45.20
45071;BME280;30836;48.906;9.140;2023-04-23T01:59:38;980.37;;;20.91;45.17
45071;BME280;30836;48.906;9.140;2023-04-23T02:00:39;980.39;;;20.93;45.15
45071;BME280;30836;48.906;9.140;2023-04-23T02:01:43;980.41;;;20.97;45.07
45071;BME280;30836;48.906;9.140;2023-04-23T02:02:45;980.43;;;20.99;45.08
45071;BME280;30836;48.906;9.140;2023-04-23T02:03:46;980.45;;;21.00;45.10
45071;BME280;30836;48.906;9.140;2023-04-23T02:04:49;980.41;;;21.01;45.08
45071;BME280;30836;48.906;9.140;2023-04-23T02:05:50;980.41;;;21.03;45.13
45071;BME280;30836;48.906;9.140;2023-04-23T02:06:53;980.43;;;21.03;45.23
45071;BME280;30836;48.906;9.140;2023-04-23T02:07:53;980.43;;;21.03;45.19
45071;BME280;30836;48.906;9.140;2023-04-23T02:08:54;980.43;;;21.03;45.20
45071;BME280;30836;48.906;9.140;2023-04-23T02:09:55;980.45;;;21.01;45.28
45071;BME280;30836;48.906;9.140;2023-04-23T02:10:55;980.43;;;21.02;45.26
45071;BME280;30836;48.906;9.140;2023-04-23T02:11:55;980.45;;;21.05;45.22
45071;BME280;30836;48.906;9.140;2023-04-23T02:12:56;980.45;;;21.08;45.14
45071;BME280;30836;48.906;9.140;2023-04-23T02:13:58;980.43;;;21.11;45.10
45071;BME280;30836;48.906;9.140;2023-04-23T02:14:59;980.49;;;21.15;45.06
45071;BME280;30836;48.906;9.140;2023-04-23T02:15:59;980.49;;;21.17;44.94
45071;BME280;30836;48.906;9.140;2023-04-23T02:17:00;980.49;;;21.18;44.99
45071;BME280;30836;48.906;9.140;2023-04-23T02:18:01;980.51;;;21.18;45.00
45071;BME280;30836;48.906;9.140;2023-04-23T02:19:01;980.49;;;21.19;44.98
45071;BME280;30836;48.906;9.140;2023-04-23T02:20:02;980.51;;;21.18;45.10
45071;BME280;30836;48.906;9.140;2023-04-23T02:21:03;980.51;;;21.18;45.14
45071;BME280;30836;48.906;9.140;2023-04-23T02:22:03;980.49;;;21.18;45.14
45071;BME280;30836;48.906;9.140;2023-04-23T02:23:04;980.49;;;21.20;45.14
45071;BME280;30836;48.906;9.140;2023-04-23T02:24:04;980.51;;;21.21;45.17
45071;BME280;30836;48.906;9.140;2023-04-23T02:25:05;980.55;;;21.22;45.01
45071;BME280;30836;48.906;9.140;2023-04-23T02:26:07;980.55;;;21.22;45.01
45071;BME280;30836;48.906;9.140;2023-04-23T02:27:07;980.59;;;21.20;45.04
45071;BME280;30836;48.906;9.140;2023-04-23T02:28:08;980.63;;;21.18;45.20
45071;BME280;30836;48.906;9.140;2023-04-23T02:29:08;980.63;;;21.14;45.28
45071;BME280;30836;48.906;9.140;2023-04-23T02:30:09;980.63;;;21.11;45.40
45071;BME280;30836;48.906;9.140;2023-04-23T02:31:10;980.63;;;21.10;45.41
45071;BME280;30836;48.906;9.140;2023-04-23T02:32:11;980.63;;;21.11;45.44
45071;BME280;30836;48.906;9.140;2023-04-23T02:33:11;980.65;;;21.12;45.40
45071;BME280;30836;48.906;9.140;2023-04-23T02:34:12;980.67;;;21.13;45.36
45071;BME280;30836;48.906;9.140;2023-04-23T02:35:12;980.65;;;21.13;45.49
45071;BME280;30836;48.906;9.140;2023-04-23T02:36:13;980.65;;;21.12;45.47
45071;BME280;30836;48.906;9.140;2023-04-23T02:37:13;980.63;;;21.09;45.62
45071;BME280;30836;48.906;9.140;2023-04-23T02:38:14;980.63;;;21.07;45.58
45071;BME280;30836;48.906;9.140;2023-04-23T02:39:14;980.63;;;21.07;45.63
45071;BME280;30836;48.906;9.140;2023-04-23T02:40:15;980.61;;;21.07;45.66
45071;BME280;30836;48.906;9.140;2023-04-23T02:41:15;980.59;;;21.08;45.69
45071;BME280;30836;48.906;9.140;2023-04-23T02:42:16;980.55;;;21.10;45.70
45071;BME280;30836;48.906;9.140;2023-04-23T02:43:16;980.51;;;21.12;45.67
45071;BME280;30836;48.906;9.140;2023-04-23T02:44:17;980.55;;;21.15;45.66
45071;BME280;30836;48.906;9.140;2023-04-23T02:45:17;980.53;;;21.16;45.73
45071;BME280;30836;48.906;9.140;2023-04-23T02:46:17;980.55;;;21.18;45.72
45071;BME280;30836;48.906;9.140;2023-04-23T02:47:18;980.51;;;21.21;45.75
45071;BME280;30836;48.906;9.140;2023-04-23T02:48:18;980.51;;;21.25;45.74
45071;BME280;30836;48.906;9.140;2023-04-23T02:49:19;980.53;;;21.29;45.82
45071;BME280;30836;48.906;9.140;2023-04-23T02:50:19;980.53;;;21.32;45.89
45071;BME280;30836;48.906;9.140;2023-04-23T02:51:20;980.53;;;21.35;45.71
45071;BME280;30836;48.906;9.140;2023-04-23T02:52:20;980.51;;;21.37;45.58
45071;BME280;30836;48.906;9.140;2023-04-23T02:53:21;980.51;;;21.38;45.54
45071;BME280;30836;48.906;9.140;2023-04-23T02:54:21;980.47;;;21.40;45.55
45071;BME280;30836;48.906;9.140;2023-04-23T02:55:21;980.51;;;21.41;45.60
45071;BME280;30836;48.906;9.140;2023-04-23T02:56:22;980.47;;;21.42;45.70
45071;BME280;30836;48.906;9.140;2023-04-23T02:57:22;980.47;;;21.43;45.75
45071;BME280;30836;48.906;9.140;2023-04-23T02:58:23;980.43;;;21.45;45.64
45071;BME280;30836;48.906;9.140;2023-04-23T02:59:24;980.43;;;21.48;45.51
45071;BME280;30836;48.906;9.140;2023-04-23T03:00:25;980.39;;;21.50;45.44
45071;BME280;30836;48.906;9.140;2023-04-23T03:01:26;980.37;;;21.51;45.21
45071;BME280;30836;48.906;9.140;2023-04-23T03:02:26;980.37;;;21.51;45.19
45071;BME280;30836;48.906;9.140;2023-04-23T03:03:27;980.39;;;21.51;45.27
45071;BME280;30836;48.906;9.140;2023-04-23T03:04:29;980.37;;;21.51;45.42
45071;BME280;30836;48.906;9.140;2023-04-23T03:05:29;980.37;;;21.52;45.63
45071;BME280;30836;48.906;9.140;2023-04-23T03:06:30;980.37;;;21.52;45.84
45071;BME280;30836;48.906;9.140;2023-04-23T03:07:30;980.37;;;21.52;45.87
45071;BME280;30836;48.906;9.140;2023-04-23T03:08:31;980.37;;;21.52;45.82
45071;BME280;30836;48.906;9.140;2023-04-23T03:09:31;980.37;;;21.53;45.69
45071;BME280;30836;48.906;9.140;2023-04-23T03:10:32;980.35;;;21.54;45.74
45071;BME280;30836;48.906;9.140;2023-04-23T03:11:32;980.39;;;21.54;45.78
45071;BME280;30836;48.906;9.140;2023-04-23T03:12:33;980.39;;;21.55;45.77
45071;BME280;30836;48.906;9.140;2023-04-23T03:13:33;980.41;;;21.57;45.81
45071;BME280;30836;48.906;9.140;2023-04-23T03:14:34;980.39;;;21.57;45.75
45071;BME280;30836;48.906;9.140;2023-04-23T03:15:34;980.39;;;21.57;45.81
45071;BME280;30836;48.906;9.140;2023-04-23T03:16:35;980.41;;;21.56;45.89
45071;BME280;30836;48.906;9.140;2023-04-23T03:17:35;980.41;;;21.56;45.94
45071;BME280;30836;48.906;9.140;2023-04-23T03:18:36;980.43;;;21.56;45.89
45071;BME280;30836;48.906;9.140;2023-04-23T03:19:36;980.43;;;21.54;45.90
45071;BME280;30836;48.906;9.140;2023-04-23T03:20:37;980.43;;;21.51;46.01
45071;BME280;30836;48.906;9.140;2023-04-23T03:21:37;980.41;;;21.48;46.16
45071;BME280;30836;48.906;9.140;2023-04-23T03:22:38;980.41;;;21.46;46.19
45071;BME280;30836;48.906;9.140;2023-04-23T03:23:38;980.43;;;21.44;46.17
45071;BME280;30836;48.906;9.140;2023-04-23T03:24:38;980.41;;;21.43;46.02
45071;BME280;30836;48.906;9.140;2023-04-23T03:25:39;980.39;;;21.42;45.81
45071;BME280;30836;48.906;9.140;2023-04-23T03:26:39;980.41;;;21.40;45.65
45071;BME280;30836;48.906;9.140;2023-04-23T03:27:40;980.41;;;21.39;45.62
45071;BME280;30836;48.906;9.140;2023-04-23T03:28:40;980.41;;;21.36;45.70
45071;BME280;30836;48.906;9.140;2023-04-23T03:29:41;980.45;;;21.33;45.95
45071;BME280;30836;48.906;9.140;2023-04-23T03:30:41;980.45;;;21.31;46.05
45071;BME280;30836;48.906;9.140;2023-04-23T03:31:42;980.45;;;21.30;46.14
45071;BME280;30836;48.906;9.140;2023-04-23T03:32:45;980.45;;;21.29;46.17
45071;BME280;30836;48.906;9.140;2023-04-23T03:33:45;980.43;;;21.29;46.19
45071;BME280;30836;48.906;9.140;2023-04-23T03:34:46;980.41;;;21.29;46.17
45071;BME280;30836;48.906;9.140;2023-04-23T03:35:46;980.39;;;21.30;46.20
45071;BME280;30836;48.906;9.140;2023-04-23T03:36:47;980.37;;;21.31;46.08
45071;BME280;30836;48.906;9.140;2023-04-23T03:37:47;980.37;;;21.32;46.16
45071;BME280;30836;48.906;9.140;2023-04-23T03:38:48;980.39;;;21.32;46.22
45071;BME280;30836;48.906;9.140;2023-04-23T03:39:48;980.41;;;21.31;46.26
45071;BME280;30836;48.906;9.140;2023-04-23T03:40:49;980.41;;;21.29;46.34
45071;BME280;30836;48.906;9.140;2023-04-23T03:41:49;980.37;;;21.28;46.43
45071;BME280;30836;48.906;9.140;2023-04-23T03:42:49;980.37;;;21.27;46.46
45071;BME280;30836;48.906;9.140;2023-04-23T03:43:50;980.43;;;21.27;46.39
45071;BME280;30836;48.906;9.140;2023-04-23T03:44:50;980.41;;;21.28;46.35
45071;BME280;30836;48.906;9.140;2023-04-23T03:45:51;980.43;;;21.29;46.35
45071;BME280;30836;48.906;9.140;2023-04-23T03:46:51;980.41;;;21.30;46.28
45071;BME280;30836;48.906;9.140;2023-04-23T03:47:52;980.43;;;21.31;46.09
45071;BME280;30836;48.906;9.140;2023-04-23T03:48:52;980.41;;;21.32;45.99
45071;BME280;30836;48.906;9.140;2023-04-23T03:49:53;980.39;;;21.32;46.01
45071;BME280;30836;48.906;9.140;2023-04-23T03:50:54;980.37;;;21.33;45.99
45071;BME280;30836;48.906;9.140;2023-04-23T03:51:54;980.37;;;21.33;45.96
45071;BME280;30836;48.906;9.140;2023-04-23T03:52:54;980.37;;;21.33;46.03
45071;BME280;30836;48.906;9.140;2023-04-23T03:53:55;980.37;;;21.33;46.05
45071;BME280;30836;48.906;9.140;2023-04-23T03:54:55;980.37;;;21.33;46.15
45071;BME280;30836;48.906;9.140;2023-04-23T03:55:56;980.37;;;21.34;46.11
45071;BME280;30836;48.906;9.140;2023-04-23T03:56:56;980.37;;;21.36;45.91
45071;BME280;30836;48.906;9.140;2023-04-23T03:57:57;980.41;;;21.36;45.87
45071;BME280;30836;48.906;9.140;2023-04-23T03:58:58;980.41;;;21.35;45.81
45071;BME280;30836;48.906;9.140;2023-04-23T03:59:58;980.39;;;21.35;45.62
45071;BME280;30836;48.906;9.140;2023-04-23T04:00:59;980.41;;;21.35;45.57
45071;BME280;30836;48.906;9.140;2023-04-23T04:01:59;980.43;;;21.34;45.67
45071;BME280;30836;48.906;9.140;2023-04-23T04:02:59;980.41;;;21.34;45.76
45071;BME280;30836;48.906;9.140;2023-04-23T04:04:00;980.41;;;21.34;45.75
45071;BME280;30836;48.906;9.140;2023-04-23T04:05:01;980.43;;;21.35;45.72
45071;BME280;30836;48.906;9.140;2023-04-23T04:06:01;980.45;;;21.34;45.74
45071;BME280;30836;48.906;9.140;2023-04-23T04:07:02;980.47;;;21.34;45.74
45071;BME280;30836;48.906;9.140;2023-04-23T04:08:02;980.49;;;21.34;45.77
45071;BME280;30836;48.906;9.140;2023-04-23T04:09:03;980.51;;;21.34;45.74
45071;BME280;30836;48.906;9.140;2023-04-23T04:10:04;980.51;;;21.33;45.66
45071;BME280;30836;48.906;9.140;2023-04-23T04:11:05;980.51;;;21.30;45.62
45071;BME280;30836;48.906;9.140;2023-04-23T04:12:06;980.49;;;21.27;45.71
45071;BME280;30836;48.906;9.140;2023-04-23T04:13:06;980.51;;;21.23;45.84
45071;BME280;30836;48.906;9.140;2023-04-23T04:14:10;980.51;;;21.18;45.97
45071;BME280;30836;48.906;9.140;2023-04-23T04:15:10;980.45;;;21.15;46.07
45071;BME280;30836;48.906;9.140;2023-04-23T04:16:11;980.47;;;21.14;46.09
45071;BME280;30836;48.906;9.140;2023-04-23T04:17:11;980.49;;;21.14;46.09
45071;BME280;30836;48.906;9.140;2023-04-23T04:18:11;980.51;;;21.14;46.09
45071;BME280;30836;48.906;9.140;2023-04-23T04:19:12;980.51;;;21.15;46.09
45071;BME280;30836;48.906;9.140;2023-04-23T04:20:12;980.49;;;21.15;46.00
45071;BME280;30836;48.906;9.140;2023-04-23T04:21:13;980.51;;;21.15;45.99
45071;BME280;30836;48.906;9.140;2023-04-23T04:22:13;980.51;;;21.16;46.02
45071;BME280;30836;48.906;9.140;2023-04-23T04:23:14;980.51;;;21.17;45.95
45071;BME280;30836;48.906;9.140;2023-04-23T04:24:14;980.53;;;21.17;46.05
45071;BME280;30836;48.906;9.140;2023-04-23T04:25:15;980.55;;;21.16;46.21
45071;BME280;30836;48.906;9.140;2023-04-23T04:26:15;980.53;;;21.16;46.17
45071;BME280;30836;48.906;9.140;2023-04-23T04:27:15;980.53;;;21.15;46.01
45071;BME280;30836;48.906;9.140;2023-04-23T04:28:16;980.55;;;21.16;45.90
45071;BME280;30836;48.906;9.140;2023-04-23T04:29:17;980.57;;;21.16;45.78
45071;BME280;30836;48.906;9.140;2023-04-23T04:30:17;980.57;;;21.16;45.85
45071;BME280;30836;48.906;9.140;2023-04-23T04:31:17;980.55;;;21.14;45.90
45071;BME280;30836;48.906;9.140;2023-04-23T04:32:18;980.59;;;21.13;45.96
45071;BME280;30836;48.906;9.140;2023-04-23T04:33:19;980.61;;;21.11;45.88
45071;BME280;30836;48.906;9.140;2023-04-23T04:34:19;980.63;;;21.09;45.91
45071;BME280;30836;48.906;9.140;2023-04-23T04:35:20;980.63;;;21.07;45.91
45071;BME280;30836;48.906;9.140;2023-04-23T04:36:20;980.63;;;21.06;45.92
45071;BME280;30836;48.906;9.140;2023-04-23T04:37:21;980.65;;;21.05;45.97
45071;BME280;30836;48.906;9.140;2023-04-23T04:38:21;980.65;;;21.04;46.14
45071;BME280;30836;48.906;9.140;2023-04-23T04:39:22;980.67;;;21.03;46.17
45071;BME280;30836;48.906;9.140;2023-04-23T04:40:22;980.69;;;21.01;46.18
45071;BME280;30836;48.906;9.140;2023-04-23T04:41:23;980.71;;;21.00;46.17
45071;BME280;30836;48.906;9.140;2023-04-23T04:42:24;980.67;;;21.00;46.16
45071;BME280;30836;48.906;9.140;2023-04-23T04:43:25;980.69;;;20.99;46.18
45071;BME280;30836;48.906;9.140;2023-04-23T04:44:25;980.67;;;20.98;46.18
45071;BME280;30836;48.906;9.140;2023-04-23T04:45:25;980.69;;;20.97;46.17
45071;BME280;30836;48.906;9.140;2023-04-23T04:46:26;980.67;;;20.95;46.19
45071;BME280;30836;48.906;9.140;2023-04-23T04:47:26;980.67;;;20.94;46.22
45071;BME280;30836;48.906;9.140;2023-04-23T04:48:27;980.65;;;20.94;46.24
45071;BME280;30836;48.906;9.140;2023-04-23T04:49:27;980.65;;;20.93;46.23
45071;BME280;30836;48.906;9.140;2023-04-23T04:50:27;980.67;;;20.93;46.24
45071;BME280;30836;48.906;9.140;2023-04-23T04:51:28;980.67;;;20.92;46.31
45071;BME280;30836;48.906;9.140;2023-04-23T04:52:28;980.67;;;20.92;46.36
45071;BME280;30836;48.906;9.140;2023-04-23T04:53:29;980.69;;;20.92;46.41
45071;BME280;30836;48.906;9.140;2023-04-23T04:54:29;980.69;;;20.92;46.40
45071;BME280;30836;48.906;9.140;2023-04-23T04:55:30;980.69;;;20.93;46.44
45071;BME280;30836;48.906;9.140;2023-04-23T04:56:30;980.67;;;20.93;46.47
45071;BME280;30836;48.906;9.140;2023-04-23T04:57:31;980.69;;;20.93;46.48
45071;BME280;30836;48.906;9.140;2023-04-23T04:58:31;980.71;;;20.93;46.60
45071;BME280;30836;48.906;9.140;2023-04-23T04:59:31;980.69;;;20.93;46.62
45071;BME280;30836;48.906;9.140;2023-04-23T05:00:32;980.71;;;20.93;46.65
45071;BME280;30836;48.906;9.140;2023-04-23T05:01:33;980.67;;;20.92;46.73
45071;BME280;30836;48.906;9.140;2023-04-23T05:02:33;980.71;;;20.91;46.75
45071;BME280;30836;48.906;9.140;2023-04-23T05:03:34;980.69;;;20.90;46.83
45071;BME280;30836;48.906;9.140;2023-04-23T05:04:34;980.69;;;20.89;46.89
45071;BME280;30836;48.906;9.140;2023-04-23T05:05:35;980.71;;;20.87;47.01
45071;BME280;30836;48.906;9.140;2023-04-23T05:06:35;980.67;;;20.86;46.97
45071;BME280;30836;48.906;9.140;2023-04-23T05:07:35;980.67;;;20.86;46.98
45071;BME280;30836;48.906;9.140;2023-04-23T05:08:36;980.67;;;20.85;46.97
45071;BME280;30836;48.906;9.140;2023-04-23T05:09:36;980.65;;;20.85;46.97
45071;BME280;30836;48.906;9.140;2023-04-23T05:10:37;980.61;;;20.85;46.96
45071;BME280;30836;48.906;9.140;2023-04-23T05:11:37;980.61;;;20.86;46.94
45071;BME280;30836;48.906;9.140;2023-04-23T05:12:38;980.65;;;20.86;46.95
45071;BME280;30836;48.906;9.140;2023-04-23T05:13:38;980.63;;;20.87;46.98
45071;BME280;30836;48.906;9.140;2023-04-23T05:14:39;980.63;;;20.87;47.05
45071;BME280;30836;48.906;9.140;2023-04-23T05:15:41;980.65;;;20.88;47.08
45071;BME280;30836;48.906;9.140;2023-04-23T05:16:41;980.65;;;20.89;47.07
45071;BME280;30836;48.906;9.140;2023-04-23T05:17:42;980.65;;;20.91;46.99
45071;BME280;30836;48.906;9.140;2023-04-23T05:18:42;980.65;;;20.93;46.86
45071;BME280;30836;48.906;9.140;2023-04-23T05:19:43;980.65;;;20.93;46.73
45071;BME280;30836;48.906;9.140;2023-04-23T05:20:43;980.61;;;20.92;46.70
45071;BME280;30836;48.906;9.140;2023-04-23T05:21:44;980.61;;;20.92;46.71
45071;BME280;30836;48.906;9.140;2023-04-23T05:22:44;980.63;;;20.91;46.71
45071;BME280;30836;48.906;9.140;2023-04-23T05:23:45;980.63;;;20.90;46.74
45071;BME280;30836;48.906;9.140;2023-04-23T05:24:45;980.65;;;20.90;46.74
45071;BME280;30836;48.906;9.140;2023-04-23T05:25:45;980.69;;;20.90;46.63
45071;BME280;30836;48.906;9.140;2023-04-23T05:26:46;980.69;;;20.91;46.55
45071;BME280;30836;48.906;9.140;2023-04-23T05:27:46;980.67;;;20.93;46.47
45071;BME280;30836;48.906;9.140;2023-04-23T05:28:47;980.69;;;20.94;46.44
45071;BME280;30836;48.906;9.140;2023-04-23T05:29:47;980.69;;;20.94;46.45
45071;BME280;30836;48.906;9.140;2023-04-23T05:30:48;980.69;;;20.96;46.37